sensor_id;sensor_type;location;lat;lon;timestamp;P1;durP1;ratioP1;P2;durP2;ratioP2
44181;SDS011;30436;48.888;9.202;2022-08-07T00:01:34;7.63;;;1.17;;
44181;SDS011;30436;48.888;9.202;2022-08-07T00:03:59;1.83;;;1.10;;
44181;SDS011;30436;48.888;9.202;2022-08-07T00:06:25;1.00;;;0.95;;
44181;SDS011;30436;48.888;9.202;2022-08-07T00:08:51;2.72;;;0.73;;
44181;SDS011;30436;48.888;9.202;2022-08-07T00:11:17;1.75;;;1.10;;
44181;SDS011;30436;48.888;9.202;2022-08-07T00:13:42;0.93;;;0.93;;
44181;SDS011;30436;48.888;9.202;2022-08-07T00:16:10;1.00;;;0.90;;
44181;SDS011;30436;48.888;9.202;2022-08-07T00:18:37;0.80;;;0.73;;
44181;SDS011;30436;48.888;9.202;2022-08-07T00:21:03;1.80;;;0.85;;
44181;SDS011;30436;48.888;9.202;2022-08-07T00:23:31;2.35;;;0.90;;
44181;SDS011;30436;48.888;9.202;2022-08-07T00:25:58;0.93;;;0.82;;
44181;SDS011;30436;48.888;9.202;2022-08-07T00:28:25;1.43;;;0.90;;
44181;SDS011;30436;48.888;9.202;2022-08-07T00:30:51;1.05;;;0.80;;
44181;SDS011;30436;48.888;9.202;2022-08-07T00:33:16;2.13;;;1.00;;
44181;SDS011;30436;48.888;9.202;2022-08-07T00:35:42;1.50;;;1.00;;
44181;SDS011;30436;48.888;9.202;2022-08-07T00:38:08;1.17;;;0.90;;
44181;SDS011;30436;48.888;9.202;2022-08-07T00:40:34;1.37;;;1.10;;
44181;SDS011;30436;48.888;9.202;2022-08-07T00:43:00;2.10;;;1.13;;
44181;SDS011;30436;48.888;9.202;2022-08-07T00:45:26;1.97;;;1.00;;
44181;SDS011;30436;48.888;9.202;2022-08-07T00:47:52;0.70;;;0.70;;
44181;SDS011;30436;48.888;9.202;2022-08-07T00:50:18;1.02;;;0.90;;
44181;SDS011;30436;48.888;9.202;2022-08-07T00:52:43;0.97;;;0.87;;
44181;SDS011;30436;48.888;9.202;2022-08-07T00:55:09;1.10;;;1.00;;
44181;SDS011;30436;48.888;9.202;2022-08-07T00:57:35;1.27;;;1.00;;
44181;SDS011;30436;48.888;9.202;2022-08-07T01:00:05;2.03;;;1.10;;
44181;SDS011;30436;48.888;9.202;2022-08-07T01:02:32;1.27;;;0.90;;
44181;SDS011;30436;48.888;9.202;2022-08-07T01:04:58;1.70;;;1.10;;
44181;SDS011;30436;48.888;9.202;2022-08-07T01:07:25;1.10;;;1.00;;
44181;SDS011;30436;48.888;9.202;2022-08-07T01:09:52;1.15;;;0.88;;
44181;SDS011;30436;48.888;9.202;2022-08-07T01:12:18;2.43;;;0.87;;
44181;SDS011;30436;48.888;9.202;2022-08-07T01:14:44;0.77;;;0.70;;
44181;SDS011;30436;48.888;9.202;2022-08-07T01:17:10;1.13;;;0.93;;
44181;SDS011;30436;48.888;9.202;2022-08-07T01:19:37;1.87;;;0.90;;
44181;SDS011;30436;48.888;9.202;2022-08-07T01:22:03;1.03;;;0.93;;
44181;SDS011;30436;48.888;9.202;2022-08-07T01:24:35;2.40;;;0.80;;
44181;SDS011;30436;48.888;9.202;2022-08-07T01:27:01;1.77;;;1.20;;
44181;SDS011;30436;48.888;9.202;2022-08-07T01:29:28;2.07;;;0.83;;
44181;SDS011;30436;48.888;9.202;2022-08-07T01:31:55;2.63;;;0.90;;
44181;SDS011;30436;48.888;9.202;2022-08-07T01:34:21;2.53;;;0.93;;
44181;SDS011;30436;48.888;9.202;2022-08-07T01:36:48;2.07;;;1.10;;
44181;SDS011;30436;48.888;9.202;2022-08-07T01:39:18;2.00;;;0.90;;
44181;SDS011;30436;48.888;9.202;2022-08-07T01:41:55;0.80;;;0.80;;
44181;SDS011;30436;48.888;9.202;2022-08-07T01:44:25;0.87;;;0.80;;
44181;SDS011;30436;48.888;9.202;2022-08-07T01:46:51;1.77;;;0.90;;
44181;SDS011;30436;48.888;9.202;2022-08-07T01:49:17;1.10;;;0.93;;
44181;SDS011;30436;48.888;9.202;2022-08-07T01:51:45;2.13;;;1.00;;
44181;SDS011;30436;48.888;9.202;2022-08-07T01:54:13;1.33;;;1.00;;
44181;SDS011;30436;48.888;9.202;2022-08-07T01:56:57;1.10;;;0.90;;
44181;SDS011;30436;48.888;9.202;2022-08-07T01:59:32;1.00;;;0.90;;
44181;SDS011;30436;48.888;9.202;2022-08-07T02:02:07;0.80;;;0.80;;
44181;SDS011;30436;48.888;9.202;2022-08-07T02:04:46;2.30;;;0.80;;
44181;SDS011;30436;48.888;9.202;2022-08-07T02:07:17;0.90;;;0.80;;
44181;SDS011;30436;48.888;9.202;2022-08-07T02:09:47;1.93;;;0.90;;
44181;SDS011;30436;48.888;9.202;2022-08-07T02:12:17;1.43;;;1.00;;
44181;SDS011;30436;48.888;9.202;2022-08-07T02:14:50;0.77;;;0.70;;
44181;SDS011;30436;48.888;9.202;2022-08-07T02:17:26;0.93;;;0.87;;
44181;SDS011;30436;48.888;9.202;2022-08-07T02:19:54;0.82;;;0.80;;
44181;SDS011;30436;48.888;9.202;2022-08-07T02:22:22;2.40;;;0.87;;
44181;SDS011;30436;48.888;9.202;2022-08-07T02:24:49;2.10;;;1.07;;
44181;SDS011;30436;48.888;9.202;2022-08-07T02:27:18;1.23;;;0.97;;
44181;SDS011;30436;48.888;9.202;2022-08-07T02:29:47;1.00;;;0.77;;
44181;SDS011;30436;48.888;9.202;2022-08-07T02:32:15;0.80;;;0.80;;
44181;SDS011;30436;48.888;9.202;2022-08-07T02:34:43;1.03;;;0.90;;
44181;SDS011;30436;48.888;9.202;2022-08-07T02:37:10;1.03;;;0.83;;
44181;SDS011;30436;48.888;9.202;2022-08-07T02:39:39;1.63;;;0.77;;
44181;SDS011;30436;48.888;9.202;2022-08-07T02:42:10;1.90;;;1.00;;
44181;SDS011;30436;48.888;9.202;2022-08-07T02:44:38;1.07;;;0.80;;
44181;SDS011;30436;48.888;9.202;2022-08-07T02:47:06;0.70;;;0.70;;
44181;SDS011;30436;48.888;9.202;2022-08-07T02:49:34;1.53;;;0.90;;
44181;SDS011;30436;48.888;9.202;2022-08-07T02:52:01;1.37;;;0.97;;
44181;SDS011;30436;48.888;9.202;2022-08-07T02:54:30;1.83;;;1.00;;
44181;SDS011;30436;48.888;9.202;2022-08-07T02:56:59;3.00;;;0.90;;
44181;SDS011;30436;48.888;9.202;2022-08-07T02:59:26;3.60;;;1.30;;
44181;SDS011;30436;48.888;9.202;2022-08-07T03:01:58;0.80;;;0.73;;
44181;SDS011;30436;48.888;9.202;2022-08-07T03:04:26;0.77;;;0.73;;
44181;SDS011;30436;48.888;9.202;2022-08-07T03:06:52;1.13;;;1.00;;
44181;SDS011;30436;48.888;9.202;2022-08-07T03:09:20;3.37;;;1.13;;
44181;SDS011;30436;48.888;9.202;2022-08-07T03:11:46;1.33;;;1.10;;
44181;SDS011;30436;48.888;9.202;2022-08-07T03:14:14;0.83;;;0.83;;
44181;SDS011;30436;48.888;9.202;2022-08-07T03:16:40;1.83;;;1.10;;
44181;SDS011;30436;48.888;9.202;2022-08-07T03:19:08;1.57;;;0.83;;
44181;SDS011;30436;48.888;9.202;2022-08-07T03:21:34;0.80;;;0.80;;
44181;SDS011;30436;48.888;9.202;2022-08-07T03:24:00;1.57;;;0.93;;
44181;SDS011;30436;48.888;9.202;2022-08-07T03:26:27;1.00;;;0.90;;
44181;SDS011;30436;48.888;9.202;2022-08-07T03:28:57;0.80;;;0.77;;
44181;SDS011;30436;48.888;9.202;2022-08-07T03:31:27;1.00;;;0.80;;
44181;SDS011;30436;48.888;9.202;2022-08-07T03:33:59;1.73;;;0.93;;
44181;SDS011;30436;48.888;9.202;2022-08-07T03:36:29;0.80;;;0.80;;
44181;SDS011;30436;48.888;9.202;2022-08-07T03:38:58;1.90;;;0.80;;
44181;SDS011;30436;48.888;9.202;2022-08-07T03:41:38;0.77;;;0.77;;
44181;SDS011;30436;48.888;9.202;2022-08-07T03:44:05;2.53;;;0.90;;
44181;SDS011;30436;48.888;9.202;2022-08-07T03:46:31;0.77;;;0.73;;
44181;SDS011;30436;48.888;9.202;2022-08-07T03:48:58;1.20;;;0.90;;
44181;SDS011;30436;48.888;9.202;2022-08-07T03:51:26;1.10;;;0.90;;
44181;SDS011;30436;48.888;9.202;2022-08-07T03:53:53;0.97;;;0.90;;
44181;SDS011;30436;48.888;9.202;2022-08-07T03:56:20;1.23;;;0.83;;
44181;SDS011;30436;48.888;9.202;2022-08-07T03:58:48;1.00;;;0.90;;
44181;SDS011;30436;48.888;9.202;2022-08-07T04:01:14;1.20;;;1.10;;
44181;SDS011;30436;48.888;9.202;2022-08-07T04:03:43;0.97;;;0.80;;
44181;SDS011;30436;48.888;9.202;2022-08-07T04:06:09;1.37;;;0.93;;
44181;SDS011;30436;48.888;9.202;2022-08-07T04:08:40;1.63;;;1.00;;
44181;SDS011;30436;48.888;9.202;2022-08-07T04:11:07;1.30;;;1.10;;
44181;SDS011;30436;48.888;9.202;2022-08-07T04:13:36;1.80;;;0.90;;
44181;SDS011;30436;48.888;9.202;2022-08-07T04:16:02;2.43;;;0.80;;
44181;SDS011;30436;48.888;9.202;2022-08-07T04:18:28;2.03;;;0.90;;
44181;SDS011;30436;48.888;9.202;2022-08-07T04:20:54;1.73;;;1.20;;
44181;SDS011;30436;48.888;9.202;2022-08-07T04:23:22;0.87;;;0.83;;
44181;SDS011;30436;48.888;9.202;2022-08-07T04:25:50;1.23;;;0.80;;
44181;SDS011;30436;48.888;9.202;2022-08-07T04:28:17;1.53;;;1.00;;
44181;SDS011;30436;48.888;9.202;2022-08-07T04:30:46;1.53;;;0.90;;
44181;SDS011;30436;48.888;9.202;2022-08-07T04:33:21;5.03;;;1.00;;
44181;SDS011;30436;48.888;9.202;2022-08-07T04:35:49;1.97;;;1.00;;
44181;SDS011;30436;48.888;9.202;2022-08-07T04:38:16;0.83;;;0.80;;
44181;SDS011;30436;48.888;9.202;2022-08-07T04:40:45;0.83;;;0.83;;
44181;SDS011;30436;48.888;9.202;2022-08-07T04:43:13;0.80;;;0.80;;
44181;SDS011;30436;48.888;9.202;2022-08-07T04:45:51;1.47;;;1.00;;
44181;SDS011;30436;48.888;9.202;2022-08-07T04:48:22;1.40;;;0.90;;
44181;SDS011;30436;48.888;9.202;2022-08-07T04:51:09;1.10;;;1.00;;
44181;SDS011;30436;48.888;9.202;2022-08-07T04:53:47;1.30;;;1.10;;
44181;SDS011;30436;48.888;9.202;2022-08-07T04:56:23;1.73;;;1.10;;
44181;SDS011;30436;48.888;9.202;2022-08-07T04:58:55;2.17;;;1.00;;
44181;SDS011;30436;48.888;9.202;2022-08-07T05:04:18;3.20;;;1.13;;
44181;SDS011;30436;48.888;9.202;2022-08-07T05:09:34;1.70;;;1.10;;
44181;SDS011;30436;48.888;9.202;2022-08-07T05:12:06;1.57;;;1.40;;
44181;SDS011;30436;48.888;9.202;2022-08-07T05:14:47;2.40;;;1.10;;
44181;SDS011;30436;48.888;9.202;2022-08-07T05:17:17;1.37;;;1.20;;
44181;SDS011;30436;48.888;9.202;2022-08-07T05:19:46;1.37;;;1.27;;
44181;SDS011;30436;48.888;9.202;2022-08-07T05:22:15;1.40;;;1.30;;
44181;SDS011;30436;48.888;9.202;2022-08-07T05:24:43;1.87;;;1.60;;
44181;SDS011;30436;48.888;9.202;2022-08-07T05:27:11;1.30;;;1.20;;
44181;SDS011;30436;48.888;9.202;2022-08-07T05:29:40;2.90;;;1.60;;
44181;SDS011;30436;48.888;9.202;2022-08-07T05:32:09;1.60;;;1.50;;
44181;SDS011;30436;48.888;9.202;2022-08-07T05:34:36;1.60;;;1.50;;
44181;SDS011;30436;48.888;9.202;2022-08-07T05:37:05;1.60;;;1.50;;
44181;SDS011;30436;48.888;9.202;2022-08-07T05:39:37;1.80;;;1.70;;
44181;SDS011;30436;48.888;9.202;2022-08-07T05:42:04;3.13;;;1.87;;
44181;SDS011;30436;48.888;9.202;2022-08-07T05:44:35;2.03;;;1.80;;
44181;SDS011;30436;48.888;9.202;2022-08-07T05:47:03;4.23;;;2.13;;
44181;SDS011;30436;48.888;9.202;2022-08-07T05:49:30;2.00;;;1.80;;
44181;SDS011;30436;48.888;9.202;2022-08-07T05:51:56;2.70;;;1.63;;
44181;SDS011;30436;48.888;9.202;2022-08-07T05:54:25;3.23;;;1.70;;
44181;SDS011;30436;48.888;9.202;2022-08-07T05:56:51;2.90;;;1.93;;
44181;SDS011;30436;48.888;9.202;2022-08-07T05:59:19;2.83;;;1.80;;
44181;SDS011;30436;48.888;9.202;2022-08-07T06:01:51;3.07;;;2.00;;
44181;SDS011;30436;48.888;9.202;2022-08-07T06:04:18;2.10;;;1.90;;
44181;SDS011;30436;48.888;9.202;2022-08-07T06:06:45;1.90;;;1.80;;
44181;SDS011;30436;48.888;9.202;2022-08-07T06:09:13;2.63;;;2.43;;
44181;SDS011;30436;48.888;9.202;2022-08-07T06:11:43;2.87;;;2.03;;
44181;SDS011;30436;48.888;9.202;2022-08-07T06:14:09;3.33;;;2.50;;
44181;SDS011;30436;48.888;9.202;2022-08-07T06:16:36;2.60;;;2.10;;
44181;SDS011;30436;48.888;9.202;2022-08-07T06:19:04;3.23;;;2.50;;
44181;SDS011;30436;48.888;9.202;2022-08-07T06:21:31;4.13;;;2.60;;
44181;SDS011;30436;48.888;9.202;2022-08-07T06:23:58;3.70;;;2.30;;
44181;SDS011;30436;48.888;9.202;2022-08-07T06:27:00;2.73;;;2.43;;
44181;SDS011;30436;48.888;9.202;2022-08-07T06:29:27;3.50;;;2.37;;
44181;SDS011;30436;48.888;9.202;2022-08-07T06:31:54;2.63;;;1.90;;
44181;SDS011;30436;48.888;9.202;2022-08-07T06:34:24;2.33;;;2.13;;
44181;SDS011;30436;48.888;9.202;2022-08-07T06:36:52;2.60;;;2.40;;
44181;SDS011;30436;48.888;9.202;2022-08-07T06:39:25;5.77;;;2.60;;
44181;SDS011;30436;48.888;9.202;2022-08-07T06:42:02;2.73;;;2.53;;
44181;SDS011;30436;48.888;9.202;2022-08-07T06:44:49;4.00;;;2.80;;
44181;SDS011;30436;48.888;9.202;2022-08-07T06:47:16;3.20;;;2.73;;
44181;SDS011;30436;48.888;9.202;2022-08-07T06:49:43;4.50;;;2.63;;
44181;SDS011;30436;48.888;9.202;2022-08-07T06:52:10;4.73;;;2.90;;
44181;SDS011;30436;48.888;9.202;2022-08-07T06:54:38;2.30;;;2.10;;
44181;SDS011;30436;48.888;9.202;2022-08-07T06:57:05;3.00;;;2.30;;
44181;SDS011;30436;48.888;9.202;2022-08-07T06:59:37;2.87;;;2.20;;
44181;SDS011;30436;48.888;9.202;2022-08-07T07:02:05;3.20;;;2.60;;
44181;SDS011;30436;48.888;9.202;2022-08-07T07:04:36;2.87;;;2.60;;
44181;SDS011;30436;48.888;9.202;2022-08-07T07:07:02;3.03;;;2.50;;
44181;SDS011;30436;48.888;9.202;2022-08-07T07:09:31;2.97;;;2.67;;
44181;SDS011;30436;48.888;9.202;2022-08-07T07:12:03;3.10;;;2.53;;
44181;SDS011;30436;48.888;9.202;2022-08-07T07:17:14;2.53;;;2.33;;
44181;SDS011;30436;48.888;9.202;2022-08-07T07:19:49;2.77;;;2.57;;
44181;SDS011;30436;48.888;9.202;2022-08-07T07:22:19;3.30;;;2.47;;
44181;SDS011;30436;48.888;9.202;2022-08-07T07:24:46;2.80;;;2.40;;
44181;SDS011;30436;48.888;9.202;2022-08-07T07:27:13;3.17;;;2.40;;
44181;SDS011;30436;48.888;9.202;2022-08-07T07:29:42;2.80;;;2.40;;
44181;SDS011;30436;48.888;9.202;2022-08-07T07:32:13;3.23;;;2.53;;
44181;SDS011;30436;48.888;9.202;2022-08-07T07:34:41;6.00;;;2.50;;
44181;SDS011;30436;48.888;9.202;2022-08-07T07:37:10;3.17;;;2.50;;
44181;SDS011;30436;48.888;9.202;2022-08-07T07:39:37;3.57;;;2.40;;
44181;SDS011;30436;48.888;9.202;2022-08-07T07:42:04;3.10;;;2.30;;
44181;SDS011;30436;48.888;9.202;2022-08-07T07:44:31;2.10;;;2.00;;
44181;SDS011;30436;48.888;9.202;2022-08-07T07:46:58;4.23;;;2.30;;
44181;SDS011;30436;48.888;9.202;2022-08-07T07:49:27;3.00;;;2.30;;
44181;SDS011;30436;48.888;9.202;2022-08-07T07:51:56;2.23;;;2.03;;
44181;SDS011;30436;48.888;9.202;2022-08-07T07:54:23;2.73;;;1.70;;
44181;SDS011;30436;48.888;9.202;2022-08-07T07:56:50;2.50;;;2.10;;
44181;SDS011;30436;48.888;9.202;2022-08-07T07:59:17;2.10;;;1.90;;
44181;SDS011;30436;48.888;9.202;2022-08-07T08:01:45;1.77;;;1.67;;
44181;SDS011;30436;48.888;9.202;2022-08-07T08:04:13;1.77;;;1.20;;
44181;SDS011;30436;48.888;9.202;2022-08-07T08:06:40;1.43;;;1.33;;
44181;SDS011;30436;48.888;9.202;2022-08-07T08:09:08;1.53;;;1.43;;
44181;SDS011;30436;48.888;9.202;2022-08-07T08:11:34;2.03;;;1.40;;
44181;SDS011;30436;48.888;9.202;2022-08-07T08:14:00;2.05;;;1.30;;
44181;SDS011;30436;48.888;9.202;2022-08-07T08:16:27;1.30;;;1.20;;
44181;SDS011;30436;48.888;9.202;2022-08-07T08:18:58;2.43;;;1.10;;
44181;SDS011;30436;48.888;9.202;2022-08-07T08:21:26;1.17;;;1.08;;
44181;SDS011;30436;48.888;9.202;2022-08-07T08:24:11;1.03;;;0.93;;
44181;SDS011;30436;48.888;9.202;2022-08-07T08:26:57;1.33;;;1.00;;
44181;SDS011;30436;48.888;9.202;2022-08-07T08:29:48;1.42;;;0.93;;
44181;SDS011;30436;48.888;9.202;2022-08-07T08:32:17;1.77;;;1.15;;
44181;SDS011;30436;48.888;9.202;2022-08-07T08:34:46;1.58;;;1.17;;
44181;SDS011;30436;48.888;9.202;2022-08-07T08:37:14;0.85;;;0.80;;
44181;SDS011;30436;48.888;9.202;2022-08-07T08:39:42;1.98;;;0.93;;
44181;SDS011;30436;48.888;9.202;2022-08-07T08:42:54;1.15;;;0.93;;
44181;SDS011;30436;48.888;9.202;2022-08-07T08:50:49;0.90;;;0.90;;
44181;SDS011;30436;48.888;9.202;2022-08-07T08:53:36;0.90;;;0.90;;
44181;SDS011;30436;48.888;9.202;2022-08-07T08:56:18;1.55;;;0.88;;
44181;SDS011;30436;48.888;9.202;2022-08-07T08:59:01;1.27;;;0.88;;
44181;SDS011;30436;48.888;9.202;2022-08-07T09:04:28;0.93;;;0.90;;
44181;SDS011;30436;48.888;9.202;2022-08-07T09:07:07;0.90;;;0.82;;
44181;SDS011;30436;48.888;9.202;2022-08-07T09:09:49;1.00;;;0.80;;
44181;SDS011;30436;48.888;9.202;2022-08-07T09:23:22;1.65;;;0.90;;
44181;SDS011;30436;48.888;9.202;2022-08-07T09:26:09;1.00;;;0.90;;
44181;SDS011;30436;48.888;9.202;2022-08-07T09:28:46;0.70;;;0.70;;
44181;SDS011;30436;48.888;9.202;2022-08-07T09:34:15;1.55;;;1.17;;
44181;SDS011;30436;48.888;9.202;2022-08-07T09:42:00;0.73;;;0.73;;
44181;SDS011;30436;48.888;9.202;2022-08-07T09:52:34;0.75;;;0.70;;
44181;SDS011;30436;48.888;9.202;2022-08-07T09:55:19;0.73;;;0.60;;
44181;SDS011;30436;48.888;9.202;2022-08-07T09:58:01;0.90;;;0.80;;
44181;SDS011;30436;48.888;9.202;2022-08-07T10:03:26;1.05;;;0.80;;
44181;SDS011;30436;48.888;9.202;2022-08-07T10:06:36;2.05;;;0.93;;
44181;SDS011;30436;48.888;9.202;2022-08-07T10:12:20;2.25;;;2.05;;
44181;SDS011;30436;48.888;9.202;2022-08-07T10:18:07;1.83;;;1.73;;
44181;SDS011;30436;48.888;9.202;2022-08-07T10:21:01;2.28;;;1.75;;
44181;SDS011;30436;48.888;9.202;2022-08-07T10:40:20;1.20;;;1.10;;
44181;SDS011;30436;48.888;9.202;2022-08-07T10:45:48;1.15;;;0.80;;
44181;SDS011;30436;48.888;9.202;2022-08-07T10:48:30;1.60;;;0.63;;
44181;SDS011;30436;48.888;9.202;2022-08-07T10:51:10;0.90;;;0.82;;
44181;SDS011;30436;48.888;9.202;2022-08-07T10:53:44;1.08;;;0.75;;
44181;SDS011;30436;48.888;9.202;2022-08-07T11:05:18;0.80;;;0.77;;
44181;SDS011;30436;48.888;9.202;2022-08-07T11:11:00;0.60;;;0.60;;
44181;SDS011;30436;48.888;9.202;2022-08-07T11:13:46;1.23;;;0.70;;
44181;SDS011;30436;48.888;9.202;2022-08-07T11:16:20;0.90;;;0.68;;
44181;SDS011;30436;48.888;9.202;2022-08-07T11:18:53;1.45;;;0.75;;
44181;SDS011;30436;48.888;9.202;2022-08-07T11:21:28;1.10;;;0.60;;
44181;SDS011;30436;48.888;9.202;2022-08-07T11:29:42;2.25;;;0.70;;
44181;SDS011;30436;48.888;9.202;2022-08-07T11:35:16;0.68;;;0.68;;
44181;SDS011;30436;48.888;9.202;2022-08-07T11:37:49;0.70;;;0.70;;
44181;SDS011;30436;48.888;9.202;2022-08-07T11:43:20;0.70;;;0.70;;
44181;SDS011;30436;48.888;9.202;2022-08-07T12:04:51;0.93;;;0.82;;
44181;SDS011;30436;48.888;9.202;2022-08-07T12:07:28;0.80;;;0.80;;
44181;SDS011;30436;48.888;9.202;2022-08-07T12:09:58;0.93;;;0.80;;
44181;SDS011;30436;48.888;9.202;2022-08-07T12:12:36;0.60;;;0.60;;
44181;SDS011;30436;48.888;9.202;2022-08-07T12:15:12;1.05;;;0.68;;
44181;SDS011;30436;48.888;9.202;2022-08-07T12:17:44;1.05;;;0.73;;
44181;SDS011;30436;48.888;9.202;2022-08-07T12:20:20;1.50;;;0.73;;
44181;SDS011;30436;48.888;9.202;2022-08-07T12:25:45;1.05;;;0.80;;
44181;SDS011;30436;48.888;9.202;2022-08-07T12:31:00;0.80;;;0.80;;
44181;SDS011;30436;48.888;9.202;2022-08-07T12:33:30;0.90;;;0.80;;
44181;SDS011;30436;48.888;9.202;2022-08-07T12:35:56;2.53;;;0.90;;
44181;SDS011;30436;48.888;9.202;2022-08-07T12:38:23;0.80;;;0.80;;
44181;SDS011;30436;48.888;9.202;2022-08-07T12:40:51;1.15;;;0.93;;
44181;SDS011;30436;48.888;9.202;2022-08-07T12:43:21;0.70;;;0.70;;
44181;SDS011;30436;48.888;9.202;2022-08-07T12:51:25;2.28;;;0.80;;
44181;SDS011;30436;48.888;9.202;2022-08-07T12:56:33;1.85;;;0.90;;
44181;SDS011;30436;48.888;9.202;2022-08-07T12:59:07;0.70;;;0.70;;
44181;SDS011;30436;48.888;9.202;2022-08-07T13:15:55;0.68;;;0.68;;
44181;SDS011;30436;48.888;9.202;2022-08-07T13:21:12;0.73;;;0.73;;
44181;SDS011;30436;48.888;9.202;2022-08-07T13:23:44;0.70;;;0.70;;
44181;SDS011;30436;48.888;9.202;2022-08-07T13:26:19;1.52;;;0.60;;
44181;SDS011;30436;48.888;9.202;2022-08-07T13:29:02;1.80;;;0.73;;
44181;SDS011;30436;48.888;9.202;2022-08-07T13:31:48;0.95;;;0.80;;
44181;SDS011;30436;48.888;9.202;2022-08-07T13:34:17;0.90;;;0.90;;
44181;SDS011;30436;48.888;9.202;2022-08-07T13:36:51;0.98;;;0.70;;
44181;SDS011;30436;48.888;9.202;2022-08-07T13:39:24;1.05;;;0.70;;
44181;SDS011;30436;48.888;9.202;2022-08-07T13:41:55;0.80;;;0.80;;
44181;SDS011;30436;48.888;9.202;2022-08-07T13:44:23;0.80;;;0.80;;
44181;SDS011;30436;48.888;9.202;2022-08-07T13:46:56;1.33;;;0.80;;
44181;SDS011;30436;48.888;9.202;2022-08-07T13:49:25;7.05;;;0.90;;
44181;SDS011;30436;48.888;9.202;2022-08-07T13:51:56;1.05;;;0.80;;
44181;SDS011;30436;48.888;9.202;2022-08-07T13:54:29;0.88;;;0.88;;
44181;SDS011;30436;48.888;9.202;2022-08-07T13:56:56;0.70;;;0.70;;
44181;SDS011;30436;48.888;9.202;2022-08-07T13:59:24;1.10;;;1.00;;
44181;SDS011;30436;48.888;9.202;2022-08-07T14:02:01;1.63;;;0.80;;
44181;SDS011;30436;48.888;9.202;2022-08-07T14:04:35;0.70;;;0.70;;
44181;SDS011;30436;48.888;9.202;2022-08-07T14:07:08;1.25;;;0.73;;
44181;SDS011;30436;48.888;9.202;2022-08-07T14:09:35;1.40;;;0.90;;
44181;SDS011;30436;48.888;9.202;2022-08-07T14:12:04;1.75;;;0.93;;
44181;SDS011;30436;48.888;9.202;2022-08-07T14:15:05;1.13;;;0.95;;
44181;SDS011;30436;48.888;9.202;2022-08-07T14:17:34;0.90;;;0.90;;
44181;SDS011;30436;48.888;9.202;2022-08-07T14:20:13;1.10;;;0.80;;
44181;SDS011;30436;48.888;9.202;2022-08-07T14:22:47;1.27;;;0.77;;
44181;SDS011;30436;48.888;9.202;2022-08-07T14:25:17;0.90;;;0.90;;
44181;SDS011;30436;48.888;9.202;2022-08-07T14:27:49;1.42;;;0.90;;
44181;SDS011;30436;48.888;9.202;2022-08-07T14:30:16;1.20;;;0.88;;
44181;SDS011;30436;48.888;9.202;2022-08-07T14:32:47;2.45;;;0.85;;
44181;SDS011;30436;48.888;9.202;2022-08-07T14:35:29;1.58;;;0.70;;
44181;SDS011;30436;48.888;9.202;2022-08-07T14:37:57;1.65;;;0.95;;
44181;SDS011;30436;48.888;9.202;2022-08-07T14:40:25;2.20;;;0.90;;
44181;SDS011;30436;48.888;9.202;2022-08-07T14:42:53;0.68;;;0.68;;
44181;SDS011;30436;48.888;9.202;2022-08-07T14:48:12;0.80;;;0.80;;
44181;SDS011;30436;48.888;9.202;2022-08-07T14:50:42;0.82;;;0.82;;
44181;SDS011;30436;48.888;9.202;2022-08-07T14:53:11;1.70;;;0.80;;
44181;SDS011;30436;48.888;9.202;2022-08-07T14:55:37;1.15;;;0.93;;
44181;SDS011;30436;48.888;9.202;2022-08-07T14:58:06;1.80;;;0.90;;
44181;SDS011;30436;48.888;9.202;2022-08-07T15:00:33;0.70;;;0.70;;
44181;SDS011;30436;48.888;9.202;2022-08-07T15:03:03;0.80;;;0.80;;
44181;SDS011;30436;48.888;9.202;2022-08-07T15:05:30;1.10;;;0.95;;
44181;SDS011;30436;48.888;9.202;2022-08-07T15:07:57;1.40;;;1.08;;
44181;SDS011;30436;48.888;9.202;2022-08-07T15:10:24;2.47;;;0.75;;
44181;SDS011;30436;48.888;9.202;2022-08-07T15:12:52;0.80;;;0.80;;
44181;SDS011;30436;48.888;9.202;2022-08-07T15:15:23;1.15;;;0.70;;
44181;SDS011;30436;48.888;9.202;2022-08-07T15:17:58;1.15;;;1.05;;
44181;SDS011;30436;48.888;9.202;2022-08-07T15:20:29;0.80;;;0.80;;
44181;SDS011;30436;48.888;9.202;2022-08-07T15:23:01;1.33;;;1.00;;
44181;SDS011;30436;48.888;9.202;2022-08-07T15:25:34;2.55;;;1.25;;
44181;SDS011;30436;48.888;9.202;2022-08-07T15:28:04;1.10;;;1.10;;
44181;SDS011;30436;48.888;9.202;2022-08-07T15:30:32;1.13;;;0.90;;
44181;SDS011;30436;48.888;9.202;2022-08-07T15:33:00;1.25;;;0.82;;
44181;SDS011;30436;48.888;9.202;2022-08-07T15:35:27;0.80;;;0.80;;
44181;SDS011;30436;48.888;9.202;2022-08-07T15:37:57;0.80;;;0.80;;
44181;SDS011;30436;48.888;9.202;2022-08-07T15:40:25;1.08;;;0.90;;
44181;SDS011;30436;48.888;9.202;2022-08-07T15:42:58;1.02;;;0.90;;
44181;SDS011;30436;48.888;9.202;2022-08-07T15:45:36;0.70;;;0.70;;
44181;SDS011;30436;48.888;9.202;2022-08-07T15:50:44;1.02;;;0.93;;
44181;SDS011;30436;48.888;9.202;2022-08-07T15:53:15;0.95;;;0.95;;
44181;SDS011;30436;48.888;9.202;2022-08-07T15:55:55;0.93;;;0.93;;
44181;SDS011;30436;48.888;9.202;2022-08-07T15:58:34;1.30;;;1.20;;
44181;SDS011;30436;48.888;9.202;2022-08-07T16:01:04;1.38;;;1.15;;
44181;SDS011;30436;48.888;9.202;2022-08-07T16:03:36;1.85;;;1.00;;
44181;SDS011;30436;48.888;9.202;2022-08-07T16:06:04;1.10;;;0.77;;
44181;SDS011;30436;48.888;9.202;2022-08-07T16:08:30;1.63;;;1.05;;
44181;SDS011;30436;48.888;9.202;2022-08-07T16:11:00;1.23;;;0.90;;
44181;SDS011;30436;48.888;9.202;2022-08-07T16:16:16;1.48;;;1.13;;
44181;SDS011;30436;48.888;9.202;2022-08-07T16:19:18;1.85;;;0.90;;
44181;SDS011;30436;48.888;9.202;2022-08-07T16:22:03;1.95;;;0.98;;
44181;SDS011;30436;48.888;9.202;2022-08-07T16:24:58;0.82;;;0.82;;
44181;SDS011;30436;48.888;9.202;2022-08-07T16:30:49;1.65;;;0.90;;
44181;SDS011;30436;48.888;9.202;2022-08-07T16:33:22;1.40;;;1.10;;
44181;SDS011;30436;48.888;9.202;2022-08-07T16:38:56;1.60;;;1.10;;
44181;SDS011;30436;48.888;9.202;2022-08-07T16:41:48;0.73;;;0.68;;
44181;SDS011;30436;48.888;9.202;2022-08-07T16:47:16;0.90;;;0.90;;
44181;SDS011;30436;48.888;9.202;2022-08-07T16:52:59;5.78;;;4.32;;
44181;SDS011;30436;48.888;9.202;2022-08-07T16:55:38;2.75;;;2.55;;
44181;SDS011;30436;48.888;9.202;2022-08-07T16:58:47;2.70;;;1.70;;
44181;SDS011;30436;48.888;9.202;2022-08-07T17:04:08;5.97;;;4.25;;
44181;SDS011;30436;48.888;9.202;2022-08-07T17:09:35;1.23;;;1.13;;
44181;SDS011;30436;48.888;9.202;2022-08-07T17:20:16;1.23;;;1.00;;
44181;SDS011;30436;48.888;9.202;2022-08-07T17:22:56;1.05;;;0.93;;
44181;SDS011;30436;48.888;9.202;2022-08-07T17:28:22;1.67;;;0.95;;
44181;SDS011;30436;48.888;9.202;2022-08-07T17:31:00;1.63;;;1.08;;
44181;SDS011;30436;48.888;9.202;2022-08-07T17:33:35;1.80;;;0.80;;
44181;SDS011;30436;48.888;9.202;2022-08-07T17:36:04;1.20;;;1.10;;
44181;SDS011;30436;48.888;9.202;2022-08-07T17:41:20;1.00;;;1.00;;
44181;SDS011;30436;48.888;9.202;2022-08-07T17:43:51;1.13;;;1.00;;
44181;SDS011;30436;48.888;9.202;2022-08-07T17:46:39;2.88;;;1.98;;
44181;SDS011;30436;48.888;9.202;2022-08-07T17:54:53;1.00;;;0.90;;
44181;SDS011;30436;48.888;9.202;2022-08-07T18:00:01;4.88;;;1.20;;
44181;SDS011;30436;48.888;9.202;2022-08-07T18:07:41;2.22;;;0.90;;
44181;SDS011;30436;48.888;9.202;2022-08-07T18:13:09;1.15;;;1.00;;
44181;SDS011;30436;48.888;9.202;2022-08-07T18:16:15;0.90;;;0.90;;
44181;SDS011;30436;48.888;9.202;2022-08-07T18:27:07;1.95;;;0.90;;
44181;SDS011;30436;48.888;9.202;2022-08-07T18:30:02;1.92;;;0.95;;
44181;SDS011;30436;48.888;9.202;2022-08-07T18:33:03;1.63;;;1.05;;
44181;SDS011;30436;48.888;9.202;2022-08-07T18:36:02;1.38;;;0.90;;
44181;SDS011;30436;48.888;9.202;2022-08-07T18:43:59;1.15;;;0.90;;
44181;SDS011;30436;48.888;9.202;2022-08-07T18:52:41;1.52;;;0.90;;
44181;SDS011;30436;48.888;9.202;2022-08-07T19:00:28;1.77;;;0.90;;
44181;SDS011;30436;48.888;9.202;2022-08-07T19:14:22;1.58;;;0.90;;